Gloversville, New York
Current Conditions -  °F | °C
As of 6:15 AM on Saturday 01 Nov 2014 (Local Time) from KNY0 Reporting Station
Overcast Overcast  
Wind Chill: 34°   Ceiling: 5000
Heat Index: 39°   Visibility: 10mi
Dew Point: 30°   Wind: 8mph
Humidity: 69%   Direction: 30°NNE
Pressure: 29.95"   Gusts: NA
Location:  43.06°N, 74.34°W
Report Text: KNY0 011015Z AUTO 03007KT 10SM OVC050 04/M01 A2995 RMK AO2 T00401013
Loading
Personal Weather Stations






























Interactive Weather Map New forecast layout! Learn more

10-Day Weather Forecast

Advertisements
Track Severe Weather on mobile